sensor_id;sensor_type;location;lat;lon;timestamp;temperature;humidity
28530;DHT22;15737;49.760;6.632;2024-03-25T00:02:06;5.00;99.90
28530;DHT22;15737;49.760;6.632;2024-03-25T00:04:32;4.90;99.90
28530;DHT22;15737;49.760;6.632;2024-03-25T00:06:57;4.70;99.90
28530;DHT22;15737;49.760;6.632;2024-03-25T00:09:24;4.70;99.90
28530;DHT22;15737;49.760;6.632;2024-03-25T00:11:49;4.60;99.90
28530;DHT22;15737;49.760;6.632;2024-03-25T00:14:22;4.60;99.90
28530;DHT22;15737;49.760;6.632;2024-03-25T00:16:48;4.50;99.90
28530;DHT22;15737;49.760;6.632;2024-03-25T00:19:13;4.50;99.90
28530;DHT22;15737;49.760;6.632;2024-03-25T00:21:39;4.30;99.90
28530;DHT22;15737;49.760;6.632;2024-03-25T00:24:05;4.20;99.90
28530;DHT22;15737;49.760;6.632;2024-03-25T00:26:30;4.10;99.90
28530;DHT22;15737;49.760;6.632;2024-03-25T00:28:56;4.10;99.90
28530;DHT22;15737;49.760;6.632;2024-03-25T00:31:21;4.10;99.90
28530;DHT22;15737;49.760;6.632;2024-03-25T00:33:47;4.00;99.90
28530;DHT22;15737;49.760;6.632;2024-03-25T00:36:12;4.00;99.90
28530;DHT22;15737;49.760;6.632;2024-03-25T00:38:38;3.90;99.90
28530;DHT22;15737;49.760;6.632;2024-03-25T00:41:04;3.90;99.90
28530;DHT22;15737;49.760;6.632;2024-03-25T00:43:29;3.80;99.90
28530;DHT22;15737;49.760;6.632;2024-03-25T00:45:55;3.70;99.90
28530;DHT22;15737;49.760;6.632;2024-03-25T00:48:22;3.70;99.90
28530;DHT22;15737;49.760;6.632;2024-03-25T00:50:48;3.60;99.90
28530;DHT22;15737;49.760;6.632;2024-03-25T00:53:13;3.50;99.90
28530;DHT22;15737;49.760;6.632;2024-03-25T00:55:39;3.50;99.90
28530;DHT22;15737;49.760;6.632;2024-03-25T00:58:05;3.40;99.90
28530;DHT22;15737;49.760;6.632;2024-03-25T01:00:30;3.40;99.90
28530;DHT22;15737;49.760;6.632;2024-03-25T01:02:56;3.40;99.90
28530;DHT22;15737;49.760;6.632;2024-03-25T01:05:22;3.30;99.90
28530;DHT22;15737;49.760;6.632;2024-03-25T01:07:47;3.30;99.90
28530;DHT22;15737;49.760;6.632;2024-03-25T01:10:14;3.40;99.90
28530;DHT22;15737;49.760;6.632;2024-03-25T01:12:40;3.30;99.90
28530;DHT22;15737;49.760;6.632;2024-03-25T01:15:06;3.30;99.90
28530;DHT22;15737;49.760;6.632;2024-03-25T01:17:32;3.30;99.90
28530;DHT22;15737;49.760;6.632;2024-03-25T01:19:58;3.30;99.90
28530;DHT22;15737;49.760;6.632;2024-03-25T01:22:23;3.20;99.90
28530;DHT22;15737;49.760;6.632;2024-03-25T01:24:49;3.20;99.90
28530;DHT22;15737;49.760;6.632;2024-03-25T01:27:14;3.10;99.90
28530;DHT22;15737;49.760;6.632;2024-03-25T01:29:40;3.10;99.90
28530;DHT22;15737;49.760;6.632;2024-03-25T01:32:06;3.10;99.90
28530;DHT22;15737;49.760;6.632;2024-03-25T01:34:32;3.00;99.90
28530;DHT22;15737;49.760;6.632;2024-03-25T01:36:57;2.90;99.90
28530;DHT22;15737;49.760;6.632;2024-03-25T01:39:26;2.90;99.90
28530;DHT22;15737;49.760;6.632;2024-03-25T01:41:51;2.80;99.90
28530;DHT22;15737;49.760;6.632;2024-03-25T01:44:17;2.80;99.90
28530;DHT22;15737;49.760;6.632;2024-03-25T01:46:42;2.70;99.90
28530;DHT22;15737;49.760;6.632;2024-03-25T01:49:08;2.70;99.90
28530;DHT22;15737;49.760;6.632;2024-03-25T01:51:34;2.80;99.90
28530;DHT22;15737;49.760;6.632;2024-03-25T01:54:02;2.90;99.90
28530;DHT22;15737;49.760;6.632;2024-03-25T01:56:30;3.00;99.90
28530;DHT22;15737;49.760;6.632;2024-03-25T01:58:56;3.00;99.90
28530;DHT22;15737;49.760;6.632;2024-03-25T02:01:22;3.10;99.90
28530;DHT22;15737;49.760;6.632;2024-03-25T02:03:48;3.10;99.90
28530;DHT22;15737;49.760;6.632;2024-03-25T02:06:15;3.10;99.90
28530;DHT22;15737;49.760;6.632;2024-03-25T02:08:43;3.00;99.90
28530;DHT22;15737;49.760;6.632;2024-03-25T02:11:09;3.00;99.90
28530;DHT22;15737;49.760;6.632;2024-03-25T02:13:36;2.90;99.90
28530;DHT22;15737;49.760;6.632;2024-03-25T02:16:03;2.80;99.90
28530;DHT22;15737;49.760;6.632;2024-03-25T02:18:29;2.80;99.90
28530;DHT22;15737;49.760;6.632;2024-03-25T02:20:56;2.80;99.90
28530;DHT22;15737;49.760;6.632;2024-03-25T02:23:21;2.80;99.90
28530;DHT22;15737;49.760;6.632;2024-03-25T02:25:51;2.70;99.90
28530;DHT22;15737;49.760;6.632;2024-03-25T02:28:17;2.60;99.90
28530;DHT22;15737;49.760;6.632;2024-03-25T02:30:43;2.50;99.90
28530;DHT22;15737;49.760;6.632;2024-03-25T02:33:08;2.30;99.90
28530;DHT22;15737;49.760;6.632;2024-03-25T02:35:34;2.20;99.90
28530;DHT22;15737;49.760;6.632;2024-03-25T02:38:01;2.10;99.90
28530;DHT22;15737;49.760;6.632;2024-03-25T02:40:27;2.10;99.90
28530;DHT22;15737;49.760;6.632;2024-03-25T02:42:52;2.00;99.90
28530;DHT22;15737;49.760;6.632;2024-03-25T02:45:18;2.00;99.90
28530;DHT22;15737;49.760;6.632;2024-03-25T02:47:45;2.10;99.90
28530;DHT22;15737;49.760;6.632;2024-03-25T02:50:10;2.10;99.90
28530;DHT22;15737;49.760;6.632;2024-03-25T02:52:36;2.10;99.90
28530;DHT22;15737;49.760;6.632;2024-03-25T02:55:01;2.10;99.90
28530;DHT22;15737;49.760;6.632;2024-03-25T02:57:27;2.20;99.90
28530;DHT22;15737;49.760;6.632;2024-03-25T02:59:52;2.10;99.90
28530;DHT22;15737;49.760;6.632;2024-03-25T03:02:18;2.10;99.90
28530;DHT22;15737;49.760;6.632;2024-03-25T03:04:43;2.00;99.90
28530;DHT22;15737;49.760;6.632;2024-03-25T03:07:09;1.90;99.90
28530;DHT22;15737;49.760;6.632;2024-03-25T03:09:34;1.80;99.90
28530;DHT22;15737;49.760;6.632;2024-03-25T03:12:00;1.80;99.90
28530;DHT22;15737;49.760;6.632;2024-03-25T03:14:25;1.80;99.90
28530;DHT22;15737;49.760;6.632;2024-03-25T03:16:51;1.90;99.90
28530;DHT22;15737;49.760;6.632;2024-03-25T03:19:25;1.80;99.90
28530;DHT22;15737;49.760;6.632;2024-03-25T03:21:51;1.70;99.90
28530;DHT22;15737;49.760;6.632;2024-03-25T03:24:17;1.70;99.90
28530;DHT22;15737;49.760;6.632;2024-03-25T03:26:43;1.60;99.90
28530;DHT22;15737;49.760;6.632;2024-03-25T03:29:09;1.60;99.90
28530;DHT22;15737;49.760;6.632;2024-03-25T03:31:35;1.60;99.90
28530;DHT22;15737;49.760;6.632;2024-03-25T03:34:01;1.60;99.90
28530;DHT22;15737;49.760;6.632;2024-03-25T03:36:27;1.60;99.90
28530;DHT22;15737;49.760;6.632;2024-03-25T03:38:52;1.60;99.90
28530;DHT22;15737;49.760;6.632;2024-03-25T03:41:18;1.60;99.90
28530;DHT22;15737;49.760;6.632;2024-03-25T03:43:43;1.70;99.90
28530;DHT22;15737;49.760;6.632;2024-03-25T03:46:09;1.80;99.90
28530;DHT22;15737;49.760;6.632;2024-03-25T03:48:34;1.80;99.90
28530;DHT22;15737;49.760;6.632;2024-03-25T03:51:01;1.80;99.90
28530;DHT22;15737;49.760;6.632;2024-03-25T03:53:29;1.80;99.90
28530;DHT22;15737;49.760;6.632;2024-03-25T03:55:56;1.80;99.90
28530;DHT22;15737;49.760;6.632;2024-03-25T03:58:23;1.80;99.90
28530;DHT22;15737;49.760;6.632;2024-03-25T04:00:49;1.80;99.90
28530;DHT22;15737;49.760;6.632;2024-03-25T04:03:14;1.70;99.90
28530;DHT22;15737;49.760;6.632;2024-03-25T04:05:40;1.70;99.90
28530;DHT22;15737;49.760;6.632;2024-03-25T04:08:06;1.70;99.90
28530;DHT22;15737;49.760;6.632;2024-03-25T04:10:32;1.60;99.90
28530;DHT22;15737;49.760;6.632;2024-03-25T04:12:57;1.60;99.90
28530;DHT22;15737;49.760;6.632;2024-03-25T04:15:23;1.50;99.90
28530;DHT22;15737;49.760;6.632;2024-03-25T04:17:49;1.40;99.90
28530;DHT22;15737;49.760;6.632;2024-03-25T04:20:16;1.30;99.90
28530;DHT22;15737;49.760;6.632;2024-03-25T04:22:42;1.30;99.90
28530;DHT22;15737;49.760;6.632;2024-03-25T04:25:09;1.30;99.90
28530;DHT22;15737;49.760;6.632;2024-03-25T04:27:39;1.40;99.90
28530;DHT22;15737;49.760;6.632;2024-03-25T04:30:06;1.40;99.90
28530;DHT22;15737;49.760;6.632;2024-03-25T04:32:33;1.30;99.90
28530;DHT22;15737;49.760;6.632;2024-03-25T04:34:58;1.20;99.90
28530;DHT22;15737;49.760;6.632;2024-03-25T04:37:24;1.20;99.90
28530;DHT22;15737;49.760;6.632;2024-03-25T04:39:49;1.20;99.90
28530;DHT22;15737;49.760;6.632;2024-03-25T04:42:15;1.20;99.90
28530;DHT22;15737;49.760;6.632;2024-03-25T04:44:40;1.10;99.90
28530;DHT22;15737;49.760;6.632;2024-03-25T04:47:06;1.10;99.90
28530;DHT22;15737;49.760;6.632;2024-03-25T04:49:31;1.00;99.90
28530;DHT22;15737;49.760;6.632;2024-03-25T04:51:57;1.00;99.90
28530;DHT22;15737;49.760;6.632;2024-03-25T04:54:22;1.00;99.90
28530;DHT22;15737;49.760;6.632;2024-03-25T04:56:48;1.00;99.90
28530;DHT22;15737;49.760;6.632;2024-03-25T04:59:13;1.00;99.90
28530;DHT22;15737;49.760;6.632;2024-03-25T05:01:39;1.00;99.90
28530;DHT22;15737;49.760;6.632;2024-03-25T05:04:04;0.90;99.90
28530;DHT22;15737;49.760;6.632;2024-03-25T05:06:32;0.80;99.90
28530;DHT22;15737;49.760;6.632;2024-03-25T05:08:58;0.80;99.90
28530;DHT22;15737;49.760;6.632;2024-03-25T05:11:23;0.80;99.90
28530;DHT22;15737;49.760;6.632;2024-03-25T05:13:49;0.80;99.90
28530;DHT22;15737;49.760;6.632;2024-03-25T05:16:14;0.80;99.90
28530;DHT22;15737;49.760;6.632;2024-03-25T05:18:40;0.90;99.90
28530;DHT22;15737;49.760;6.632;2024-03-25T05:21:05;0.90;99.90
28530;DHT22;15737;49.760;6.632;2024-03-25T05:23:31;0.90;99.90
28530;DHT22;15737;49.760;6.632;2024-03-25T05:25:56;1.00;99.90
28530;DHT22;15737;49.760;6.632;2024-03-25T05:28:22;1.00;99.90
28530;DHT22;15737;49.760;6.632;2024-03-25T05:30:47;1.10;99.90
28530;DHT22;15737;49.760;6.632;2024-03-25T05:33:15;1.20;99.90
28530;DHT22;15737;49.760;6.632;2024-03-25T05:35:41;1.30;99.90
28530;DHT22;15737;49.760;6.632;2024-03-25T05:38:06;1.30;99.90
28530;DHT22;15737;49.760;6.632;2024-03-25T05:40:32;1.20;99.90
28530;DHT22;15737;49.760;6.632;2024-03-25T05:42:58;1.40;99.90
28530;DHT22;15737;49.760;6.632;2024-03-25T05:45:23;1.60;99.90
28530;DHT22;15737;49.760;6.632;2024-03-25T05:47:50;2.00;99.90
28530;DHT22;15737;49.760;6.632;2024-03-25T05:50:16;2.80;99.90
28530;DHT22;15737;49.760;6.632;2024-03-25T05:52:42;3.60;99.90
28530;DHT22;15737;49.760;6.632;2024-03-25T05:55:08;4.30;99.90
28530;DHT22;15737;49.760;6.632;2024-03-25T05:57:35;4.90;99.90
28530;DHT22;15737;49.760;6.632;2024-03-25T06:00:01;5.70;99.90
28530;DHT22;15737;49.760;6.632;2024-03-25T06:02:27;6.80;99.90
28530;DHT22;15737;49.760;6.632;2024-03-25T06:04:52;7.90;99.90
28530;DHT22;15737;49.760;6.632;2024-03-25T06:07:18;8.80;99.90
28530;DHT22;15737;49.760;6.632;2024-03-25T06:09:43;9.90;99.90
28530;DHT22;15737;49.760;6.632;2024-03-25T06:12:09;11.20;99.90
28530;DHT22;15737;49.760;6.632;2024-03-25T06:14:35;12.60;99.90
28530;DHT22;15737;49.760;6.632;2024-03-25T06:17:00;13.70;99.90
28530;DHT22;15737;49.760;6.632;2024-03-25T06:19:26;14.80;99.40
28530;DHT22;15737;49.760;6.632;2024-03-25T06:21:51;15.90;96.70
28530;DHT22;15737;49.760;6.632;2024-03-25T06:24:17;16.60;94.20
28530;DHT22;15737;49.760;6.632;2024-03-25T06:26:42;17.00;93.20
28530;DHT22;15737;49.760;6.632;2024-03-25T06:29:08;17.80;92.00
28530;DHT22;15737;49.760;6.632;2024-03-25T06:31:33;18.40;90.50
28530;DHT22;15737;49.760;6.632;2024-03-25T06:36:51;19.70;87.70
28530;DHT22;15737;49.760;6.632;2024-03-25T06:39:17;21.00;85.90
28530;DHT22;15737;49.760;6.632;2024-03-25T06:41:43;21.90;84.00
28530;DHT22;15737;49.760;6.632;2024-03-25T06:44:09;22.30;81.70
28530;DHT22;15737;49.760;6.632;2024-03-25T06:46:34;22.30;80.70
28530;DHT22;15737;49.760;6.632;2024-03-25T06:49:00;21.90;79.80
28530;DHT22;15737;49.760;6.632;2024-03-25T06:51:26;21.50;79.50
28530;DHT22;15737;49.760;6.632;2024-03-25T06:53:52;21.00;78.80
28530;DHT22;15737;49.760;6.632;2024-03-25T06:56:17;21.20;78.70
28530;DHT22;15737;49.760;6.632;2024-03-25T06:58:43;21.90;78.40
28530;DHT22;15737;49.760;6.632;2024-03-25T07:01:09;23.30;76.10
28530;DHT22;15737;49.760;6.632;2024-03-25T07:03:38;24.70;72.50
28530;DHT22;15737;49.760;6.632;2024-03-25T07:06:04;24.90;70.30
28530;DHT22;15737;49.760;6.632;2024-03-25T07:08:31;24.60;69.20
28530;DHT22;15737;49.760;6.632;2024-03-25T07:10:56;23.70;69.30
28530;DHT22;15737;49.760;6.632;2024-03-25T07:13:22;23.30;69.70
28530;DHT22;15737;49.760;6.632;2024-03-25T07:15:48;23.80;68.80
28530;DHT22;15737;49.760;6.632;2024-03-25T07:18:13;24.00;67.40
28530;DHT22;15737;49.760;6.632;2024-03-25T07:20:39;23.80;67.00
28530;DHT22;15737;49.760;6.632;2024-03-25T07:23:05;23.80;66.40
28530;DHT22;15737;49.760;6.632;2024-03-25T07:25:31;23.50;66.40
28530;DHT22;15737;49.760;6.632;2024-03-25T07:27:57;23.20;67.40
28530;DHT22;15737;49.760;6.632;2024-03-25T07:30:23;22.10;69.70
28530;DHT22;15737;49.760;6.632;2024-03-25T07:32:53;22.20;68.20
28530;DHT22;15737;49.760;6.632;2024-03-25T07:35:18;22.00;67.20
28530;DHT22;15737;49.760;6.632;2024-03-25T07:37:44;21.90;65.30
28530;DHT22;15737;49.760;6.632;2024-03-25T07:40:10;21.30;65.10
28530;DHT22;15737;49.760;6.632;2024-03-25T07:42:37;20.40;66.40
28530;DHT22;15737;49.760;6.632;2024-03-25T07:45:03;20.10;66.80
28530;DHT22;15737;49.760;6.632;2024-03-25T07:47:30;19.60;67.10
28530;DHT22;15737;49.760;6.632;2024-03-25T07:49:56;18.80;68.00
28530;DHT22;15737;49.760;6.632;2024-03-25T07:52:21;18.50;69.40
28530;DHT22;15737;49.760;6.632;2024-03-25T07:54:47;18.40;70.20
28530;DHT22;15737;49.760;6.632;2024-03-25T07:57:12;18.20;69.90
28530;DHT22;15737;49.760;6.632;2024-03-25T07:59:38;17.90;70.30
28530;DHT22;15737;49.760;6.632;2024-03-25T08:02:04;18.60;69.40
28530;DHT22;15737;49.760;6.632;2024-03-25T08:04:29;18.40;69.10
28530;DHT22;15737;49.760;6.632;2024-03-25T08:06:55;17.70;69.50
28530;DHT22;15737;49.760;6.632;2024-03-25T08:09:20;16.80;71.10
28530;DHT22;15737;49.760;6.632;2024-03-25T08:11:46;15.80;73.00
28530;DHT22;15737;49.760;6.632;2024-03-25T08:14:12;15.10;74.80
28530;DHT22;15737;49.760;6.632;2024-03-25T08:16:37;14.70;76.80
28530;DHT22;15737;49.760;6.632;2024-03-25T08:19:03;15.10;76.10
28530;DHT22;15737;49.760;6.632;2024-03-25T08:21:29;15.20;76.00
28530;DHT22;15737;49.760;6.632;2024-03-25T08:23:54;15.40;76.10
28530;DHT22;15737;49.760;6.632;2024-03-25T08:26:20;16.40;74.50
28530;DHT22;15737;49.760;6.632;2024-03-25T08:28:46;17.50;72.50
28530;DHT22;15737;49.760;6.632;2024-03-25T08:31:11;18.20;70.50
28530;DHT22;15737;49.760;6.632;2024-03-25T08:33:37;19.10;68.30
28530;DHT22;15737;49.760;6.632;2024-03-25T08:36:02;19.70;67.30
28530;DHT22;15737;49.760;6.632;2024-03-25T08:38:28;19.20;67.50
28530;DHT22;15737;49.760;6.632;2024-03-25T08:40:54;18.20;69.80
28530;DHT22;15737;49.760;6.632;2024-03-25T08:43:19;17.70;70.50
28530;DHT22;15737;49.760;6.632;2024-03-25T08:45:45;17.40;70.60
28530;DHT22;15737;49.760;6.632;2024-03-25T08:48:11;17.90;71.00
28530;DHT22;15737;49.760;6.632;2024-03-25T08:50:37;19.10;69.00
28530;DHT22;15737;49.760;6.632;2024-03-25T08:53:03;20.60;67.50
28530;DHT22;15737;49.760;6.632;2024-03-25T08:55:29;21.50;65.20
28530;DHT22;15737;49.760;6.632;2024-03-25T08:57:54;20.60;65.60
28530;DHT22;15737;49.760;6.632;2024-03-25T09:00:20;19.50;67.30
28530;DHT22;15737;49.760;6.632;2024-03-25T09:02:46;18.90;68.80
28530;DHT22;15737;49.760;6.632;2024-03-25T09:05:11;19.80;67.00
28530;DHT22;15737;49.760;6.632;2024-03-25T09:07:39;20.70;66.10
28530;DHT22;15737;49.760;6.632;2024-03-25T09:10:05;21.70;65.50
28530;DHT22;15737;49.760;6.632;2024-03-25T09:12:49;22.80;63.00
28530;DHT22;15737;49.760;6.632;2024-03-25T09:15:14;22.20;63.70
28530;DHT22;15737;49.760;6.632;2024-03-25T09:17:40;22.40;64.60
28530;DHT22;15737;49.760;6.632;2024-03-25T09:20:06;22.70;63.20
28530;DHT22;15737;49.760;6.632;2024-03-25T09:22:45;22.20;63.80
28530;DHT22;15737;49.760;6.632;2024-03-25T09:25:12;22.10;63.60
28530;DHT22;15737;49.760;6.632;2024-03-25T09:27:39;23.10;61.50
28530;DHT22;15737;49.760;6.632;2024-03-25T09:30:05;23.30;59.70
28530;DHT22;15737;49.760;6.632;2024-03-25T09:32:31;23.00;60.20
28530;DHT22;15737;49.760;6.632;2024-03-25T09:34:57;22.70;60.30
28530;DHT22;15737;49.760;6.632;2024-03-25T09:37:22;22.80;59.90
28530;DHT22;15737;49.760;6.632;2024-03-25T09:39:48;23.00;59.40
28530;DHT22;15737;49.760;6.632;2024-03-25T09:42:26;22.90;59.10
28530;DHT22;15737;49.760;6.632;2024-03-25T09:44:56;22.00;59.80
28530;DHT22;15737;49.760;6.632;2024-03-25T09:47:22;20.80;61.20
28530;DHT22;15737;49.760;6.632;2024-03-25T09:49:48;20.50;63.30
28530;DHT22;15737;49.760;6.632;2024-03-25T09:52:15;20.50;62.50
28530;DHT22;15737;49.760;6.632;2024-03-25T09:54:41;19.10;65.00
28530;DHT22;15737;49.760;6.632;2024-03-25T09:57:07;17.60;68.70
28530;DHT22;15737;49.760;6.632;2024-03-25T09:59:33;19.40;67.40
28530;DHT22;15737;49.760;6.632;2024-03-25T10:01:59;21.10;64.50
28530;DHT22;15737;49.760;6.632;2024-03-25T10:04:25;20.80;64.10
28530;DHT22;15737;49.760;6.632;2024-03-25T10:06:51;20.30;65.10
28530;DHT22;15737;49.760;6.632;2024-03-25T10:09:20;20.20;64.70
28530;DHT22;15737;49.760;6.632;2024-03-25T10:11:49;18.30;67.20
28530;DHT22;15737;49.760;6.632;2024-03-25T10:14:18;17.20;70.90
28530;DHT22;15737;49.760;6.632;2024-03-25T10:16:48;16.20;72.80
28530;DHT22;15737;49.760;6.632;2024-03-25T10:19:14;15.30;75.00
28530;DHT22;15737;49.760;6.632;2024-03-25T10:21:40;14.70;76.40
28530;DHT22;15737;49.760;6.632;2024-03-25T10:24:05;14.90;77.60
28530;DHT22;15737;49.760;6.632;2024-03-25T10:26:32;14.80;77.30
28530;DHT22;15737;49.760;6.632;2024-03-25T10:29:05;14.80;78.10
28530;DHT22;15737;49.760;6.632;2024-03-25T10:31:32;14.40;78.40
28530;DHT22;15737;49.760;6.632;2024-03-25T10:33:58;14.10;79.70
28530;DHT22;15737;49.760;6.632;2024-03-25T10:36:24;14.00;79.80
28530;DHT22;15737;49.760;6.632;2024-03-25T10:38:53;14.20;80.20
28530;DHT22;15737;49.760;6.632;2024-03-25T10:41:20;14.30;79.40
28530;DHT22;15737;49.760;6.632;2024-03-25T10:43:47;13.70;79.80
28530;DHT22;15737;49.760;6.632;2024-03-25T10:46:17;13.00;81.00
28530;DHT22;15737;49.760;6.632;2024-03-25T10:48:53;12.50;80.80
28530;DHT22;15737;49.760;6.632;2024-03-25T10:51:21;12.00;81.30
28530;DHT22;15737;49.760;6.632;2024-03-25T10:53:51;11.70;81.70
28530;DHT22;15737;49.760;6.632;2024-03-25T10:56:20;11.60;81.80
28530;DHT22;15737;49.760;6.632;2024-03-25T10:58:50;11.90;81.60
28530;DHT22;15737;49.760;6.632;2024-03-25T11:01:19;12.30;80.80
28530;DHT22;15737;49.760;6.632;2024-03-25T11:03:46;12.70;79.70
28530;DHT22;15737;49.760;6.632;2024-03-25T11:06:13;13.20;78.90
28530;DHT22;15737;49.760;6.632;2024-03-25T11:08:39;13.80;77.40
28530;DHT22;15737;49.760;6.632;2024-03-25T11:11:07;14.00;76.40
28530;DHT22;15737;49.760;6.632;2024-03-25T11:13:32;14.20;75.70
28530;DHT22;15737;49.760;6.632;2024-03-25T11:15:58;14.70;76.00
28530;DHT22;15737;49.760;6.632;2024-03-25T11:18:25;15.30;75.00
28530;DHT22;15737;49.760;6.632;2024-03-25T11:21:04;15.80;73.80
28530;DHT22;15737;49.760;6.632;2024-03-25T11:23:44;15.90;72.60
28530;DHT22;15737;49.760;6.632;2024-03-25T11:26:19;15.60;71.30
28530;DHT22;15737;49.760;6.632;2024-03-25T11:28:45;15.20;72.30
28530;DHT22;15737;49.760;6.632;2024-03-25T11:31:11;15.20;72.20
28530;DHT22;15737;49.760;6.632;2024-03-25T11:33:39;15.30;72.20
28530;DHT22;15737;49.760;6.632;2024-03-25T11:36:05;15.30;71.70
28530;DHT22;15737;49.760;6.632;2024-03-25T11:38:30;15.60;72.10
28530;DHT22;15737;49.760;6.632;2024-03-25T11:40:56;17.40;69.40
28530;DHT22;15737;49.760;6.632;2024-03-25T11:45:53;21.50;66.40
28530;DHT22;15737;49.760;6.632;2024-03-25T11:48:19;23.30;64.70
28530;DHT22;15737;49.760;6.632;2024-03-25T11:50:46;22.90;62.10
28530;DHT22;15737;49.760;6.632;2024-03-25T11:53:13;20.30;61.80
28530;DHT22;15737;49.760;6.632;2024-03-25T11:55:40;17.90;64.00
28530;DHT22;15737;49.760;6.632;2024-03-25T11:58:07;16.50;67.40
28530;DHT22;15737;49.760;6.632;2024-03-25T12:00:33;15.80;69.60
28530;DHT22;15737;49.760;6.632;2024-03-25T12:02:59;15.50;70.30
28530;DHT22;15737;49.760;6.632;2024-03-25T12:05:25;15.70;70.60
28530;DHT22;15737;49.760;6.632;2024-03-25T12:07:50;17.00;70.30
28530;DHT22;15737;49.760;6.632;2024-03-25T12:10:16;19.40;67.90
28530;DHT22;15737;49.760;6.632;2024-03-25T12:13:00;21.90;64.90
28530;DHT22;15737;49.760;6.632;2024-03-25T12:15:26;24.00;61.30
28530;DHT22;15737;49.760;6.632;2024-03-25T12:17:52;24.20;59.50
28530;DHT22;15737;49.760;6.632;2024-03-25T12:20:18;23.50;59.10
28530;DHT22;15737;49.760;6.632;2024-03-25T12:22:44;22.60;58.70
28530;DHT22;15737;49.760;6.632;2024-03-25T12:25:09;21.60;55.90
28530;DHT22;15737;49.760;6.632;2024-03-25T12:27:37;20.10;55.20
28530;DHT22;15737;49.760;6.632;2024-03-25T12:30:08;18.20;55.90
28530;DHT22;15737;49.760;6.632;2024-03-25T12:35:02;16.90;56.20
28530;DHT22;15737;49.760;6.632;2024-03-25T12:37:30;16.80;54.00
28530;DHT22;15737;49.760;6.632;2024-03-25T12:39:56;16.20;54.10
28530;DHT22;15737;49.760;6.632;2024-03-25T12:42:24;15.30;54.20
28530;DHT22;15737;49.760;6.632;2024-03-25T12:44:51;14.90;56.50
28530;DHT22;15737;49.760;6.632;2024-03-25T12:47:31;15.80;56.30
28530;DHT22;15737;49.760;6.632;2024-03-25T12:49:57;17.60;55.10
28530;DHT22;15737;49.760;6.632;2024-03-25T12:52:23;18.40;54.10
28530;DHT22;15737;49.760;6.632;2024-03-25T12:54:48;18.10;52.20
28530;DHT22;15737;49.760;6.632;2024-03-25T12:57:14;17.30;52.80
28530;DHT22;15737;49.760;6.632;2024-03-25T12:59:39;16.90;53.30
28530;DHT22;15737;49.760;6.632;2024-03-25T13:02:08;16.60;54.00
28530;DHT22;15737;49.760;6.632;2024-03-25T13:04:36;16.80;53.80
28530;DHT22;15737;49.760;6.632;2024-03-25T13:07:03;16.60;53.10
28530;DHT22;15737;49.760;6.632;2024-03-25T13:09:29;16.20;53.80
28530;DHT22;15737;49.760;6.632;2024-03-25T13:12:00;16.40;54.70
28530;DHT22;15737;49.760;6.632;2024-03-25T13:14:25;16.90;53.60
28530;DHT22;15737;49.760;6.632;2024-03-25T13:16:51;16.90;52.70
28530;DHT22;15737;49.760;6.632;2024-03-25T13:19:17;16.40;52.80
28530;DHT22;15737;49.760;6.632;2024-03-25T13:21:43;16.20;53.20
28530;DHT22;15737;49.760;6.632;2024-03-25T13:24:08;15.90;53.20
28530;DHT22;15737;49.760;6.632;2024-03-25T13:26:34;14.90;53.70
28530;DHT22;15737;49.760;6.632;2024-03-25T13:28:59;14.10;54.80
28530;DHT22;15737;49.760;6.632;2024-03-25T13:31:25;14.00;55.80
28530;DHT22;15737;49.760;6.632;2024-03-25T13:33:51;14.90;55.50
28530;DHT22;15737;49.760;6.632;2024-03-25T13:36:17;15.30;54.40
28530;DHT22;15737;49.760;6.632;2024-03-25T13:41:24;16.30;54.70
28530;DHT22;15737;49.760;6.632;2024-03-25T13:43:49;16.60;54.40
28530;DHT22;15737;49.760;6.632;2024-03-25T13:46:15;17.20;54.60
28530;DHT22;15737;49.760;6.632;2024-03-25T13:48:41;16.90;54.30
28530;DHT22;15737;49.760;6.632;2024-03-25T13:51:06;16.20;54.00
28530;DHT22;15737;49.760;6.632;2024-03-25T13:53:32;16.00;54.60
28530;DHT22;15737;49.760;6.632;2024-03-25T13:55:58;16.00;55.40
28530;DHT22;15737;49.760;6.632;2024-03-25T13:58:23;16.20;55.00
28530;DHT22;15737;49.760;6.632;2024-03-25T14:00:49;16.80;55.90
28530;DHT22;15737;49.760;6.632;2024-03-25T14:03:15;17.60;53.50
28530;DHT22;15737;49.760;6.632;2024-03-25T14:08:16;16.30;54.40
28530;DHT22;15737;49.760;6.632;2024-03-25T14:10:43;15.80;54.60
28530;DHT22;15737;49.760;6.632;2024-03-25T14:13:09;16.20;55.50
28530;DHT22;15737;49.760;6.632;2024-03-25T14:15:34;16.90;55.10
28530;DHT22;15737;49.760;6.632;2024-03-25T14:18:00;17.50;54.50
28530;DHT22;15737;49.760;6.632;2024-03-25T14:20:25;17.80;54.10
28530;DHT22;15737;49.760;6.632;2024-03-25T14:22:51;18.00;53.30
28530;DHT22;15737;49.760;6.632;2024-03-25T14:25:16;17.20;52.60
28530;DHT22;15737;49.760;6.632;2024-03-25T14:27:42;15.70;53.10
28530;DHT22;15737;49.760;6.632;2024-03-25T14:30:08;14.70;54.40
28530;DHT22;15737;49.760;6.632;2024-03-25T14:35:10;14.30;55.50
28530;DHT22;15737;49.760;6.632;2024-03-25T14:37:35;14.60;55.60
28530;DHT22;15737;49.760;6.632;2024-03-25T14:40:01;14.90;55.30
28530;DHT22;15737;49.760;6.632;2024-03-25T14:42:26;14.80;55.10
28530;DHT22;15737;49.760;6.632;2024-03-25T14:44:52;14.50;54.40
28530;DHT22;15737;49.760;6.632;2024-03-25T14:47:18;14.50;55.00
28530;DHT22;15737;49.760;6.632;2024-03-25T14:49:43;14.40;54.60
28530;DHT22;15737;49.760;6.632;2024-03-25T14:52:09;14.20;54.90
28530;DHT22;15737;49.760;6.632;2024-03-25T14:54:35;14.00;55.10
28530;DHT22;15737;49.760;6.632;2024-03-25T14:57:00;13.80;55.40
28530;DHT22;15737;49.760;6.632;2024-03-25T14:59:27;14.20;56.50
28530;DHT22;15737;49.760;6.632;2024-03-25T15:01:58;14.50;55.80
28530;DHT22;15737;49.760;6.632;2024-03-25T15:04:24;14.10;55.60
28530;DHT22;15737;49.760;6.632;2024-03-25T15:06:50;13.70;56.30
28530;DHT22;15737;49.760;6.632;2024-03-25T15:09:15;13.60;56.70
28530;DHT22;15737;49.760;6.632;2024-03-25T15:11:41;13.50;57.10
28530;DHT22;15737;49.760;6.632;2024-03-25T15:14:06;13.70;57.40
28530;DHT22;15737;49.760;6.632;2024-03-25T15:16:31;13.80;57.40
28530;DHT22;15737;49.760;6.632;2024-03-25T15:18:57;13.70;56.60
28530;DHT22;15737;49.760;6.632;2024-03-25T15:21:22;13.40;56.90
28530;DHT22;15737;49.760;6.632;2024-03-25T15:23:48;13.50;57.70
28530;DHT22;15737;49.760;6.632;2024-03-25T15:26:13;13.70;58.20
28530;DHT22;15737;49.760;6.632;2024-03-25T15:28:40;14.60;58.10
28530;DHT22;15737;49.760;6.632;2024-03-25T15:31:05;15.30;56.90
28530;DHT22;15737;49.760;6.632;2024-03-25T15:33:31;14.60;55.90
28530;DHT22;15737;49.760;6.632;2024-03-25T15:35:57;13.80;56.70
28530;DHT22;15737;49.760;6.632;2024-03-25T15:38:23;13.60;57.90
28530;DHT22;15737;49.760;6.632;2024-03-25T15:40:48;13.70;58.30
28530;DHT22;15737;49.760;6.632;2024-03-25T15:43:18;13.50;57.50
28530;DHT22;15737;49.760;6.632;2024-03-25T15:45:56;13.20;58.00
28530;DHT22;15737;49.760;6.632;2024-03-25T15:48:23;13.00;58.40